sensor_id;sensor_type;location;lat;lon;timestamp;temperature;humidity
33841;DHT22;20142;28.494;-16.312;2022-12-31T00:04:54;18.00;73.30
33841;DHT22;20142;28.494;-16.312;2022-12-31T00:09:56;17.90;73.10
33841;DHT22;20142;28.494;-16.312;2022-12-31T00:14:57;18.10;73.00
33841;DHT22;20142;28.494;-16.312;2022-12-31T00:19:59;18.20;71.90
33841;DHT22;20142;28.494;-16.312;2022-12-31T00:25:01;18.30;70.90
33841;DHT22;20142;28.494;-16.312;2022-12-31T00:30:02;18.50;70.00
33841;DHT22;20142;28.494;-16.312;2022-12-31T00:35:05;18.60;68.90
33841;DHT22;20142;28.494;-16.312;2022-12-31T00:40:07;18.70;68.40
33841;DHT22;20142;28.494;-16.312;2022-12-31T00:45:10;18.70;67.90
33841;DHT22;20142;28.494;-16.312;2022-12-31T00:50:11;18.70;67.40
33841;DHT22;20142;28.494;-16.312;2022-12-31T00:55:13;18.60;67.40
33841;DHT22;20142;28.494;-16.312;2022-12-31T01:00:15;18.70;66.80
33841;DHT22;20142;28.494;-16.312;2022-12-31T01:05:17;18.60;66.50
33841;DHT22;20142;28.494;-16.312;2022-12-31T01:10:18;18.60;66.10
33841;DHT22;20142;28.494;-16.312;2022-12-31T01:15:40;18.60;66.00
33841;DHT22;20142;28.494;-16.312;2022-12-31T01:20:43;18.50;66.00
33841;DHT22;20142;28.494;-16.312;2022-12-31T01:25:44;18.40;66.30
33841;DHT22;20142;28.494;-16.312;2022-12-31T01:30:46;18.40;66.40
33841;DHT22;20142;28.494;-16.312;2022-12-31T01:35:48;18.40;66.50
33841;DHT22;20142;28.494;-16.312;2022-12-31T01:40:49;18.40;66.50
33841;DHT22;20142;28.494;-16.312;2022-12-31T01:45:52;18.30;66.40
33841;DHT22;20142;28.494;-16.312;2022-12-31T01:50:54;18.20;66.60
33841;DHT22;20142;28.494;-16.312;2022-12-31T01:55:57;18.20;67.10
33841;DHT22;20142;28.494;-16.312;2022-12-31T02:01:00;18.10;68.00
33841;DHT22;20142;28.494;-16.312;2022-12-31T02:06:30;18.00;68.20
33841;DHT22;20142;28.494;-16.312;2022-12-31T02:11:37;18.00;68.60
33841;DHT22;20142;28.494;-16.312;2022-12-31T02:38:03;17.80;72.10
33841;DHT22;20142;28.494;-16.312;2022-12-31T02:43:08;17.60;72.80
33841;DHT22;20142;28.494;-16.312;2022-12-31T02:48:32;17.70;73.30
33841;DHT22;20142;28.494;-16.312;2022-12-31T02:59:29;17.50;74.20
33841;DHT22;20142;28.494;-16.312;2022-12-31T03:04:54;17.50;75.00
33841;DHT22;20142;28.494;-16.312;2022-12-31T03:09:57;17.50;74.90
33841;DHT22;20142;28.494;-16.312;2022-12-31T03:14:59;17.50;75.50
33841;DHT22;20142;28.494;-16.312;2022-12-31T03:20:01;17.50;75.40
33841;DHT22;20142;28.494;-16.312;2022-12-31T03:25:22;17.50;75.50
33841;DHT22;20142;28.494;-16.312;2022-12-31T03:30:38;17.50;75.50
33841;DHT22;20142;28.494;-16.312;2022-12-31T03:35:43;17.50;75.50
33841;DHT22;20142;28.494;-16.312;2022-12-31T03:40:48;17.60;75.20
33841;DHT22;20142;28.494;-16.312;2022-12-31T03:45:53;17.70;75.10
33841;DHT22;20142;28.494;-16.312;2022-12-31T03:50:55;17.70;74.90
33841;DHT22;20142;28.494;-16.312;2022-12-31T03:55:56;17.70;74.50
33841;DHT22;20142;28.494;-16.312;2022-12-31T04:00:58;17.80;74.10
33841;DHT22;20142;28.494;-16.312;2022-12-31T04:05:59;17.90;74.00
33841;DHT22;20142;28.494;-16.312;2022-12-31T04:11:01;17.90;73.70
33841;DHT22;20142;28.494;-16.312;2022-12-31T04:16:04;17.80;73.60
33841;DHT22;20142;28.494;-16.312;2022-12-31T04:21:06;17.80;73.40
33841;DHT22;20142;28.494;-16.312;2022-12-31T04:26:07;17.80;73.20
33841;DHT22;20142;28.494;-16.312;2022-12-31T04:31:09;17.70;72.80
33841;DHT22;20142;28.494;-16.312;2022-12-31T04:36:11;17.90;72.30
33841;DHT22;20142;28.494;-16.312;2022-12-31T04:41:13;17.90;72.10
33841;DHT22;20142;28.494;-16.312;2022-12-31T04:46:24;17.90;71.80
33841;DHT22;20142;28.494;-16.312;2022-12-31T04:51:33;17.90;71.80
33841;DHT22;20142;28.494;-16.312;2022-12-31T04:56:35;17.90;71.10
33841;DHT22;20142;28.494;-16.312;2022-12-31T05:01:37;17.90;70.70
33841;DHT22;20142;28.494;-16.312;2022-12-31T05:06:39;17.90;70.60
33841;DHT22;20142;28.494;-16.312;2022-12-31T05:11:41;18.00;70.10
33841;DHT22;20142;28.494;-16.312;2022-12-31T05:16:42;17.90;69.50
33841;DHT22;20142;28.494;-16.312;2022-12-31T05:21:44;18.00;69.40
33841;DHT22;20142;28.494;-16.312;2022-12-31T05:27:06;18.10;68.90
33841;DHT22;20142;28.494;-16.312;2022-12-31T05:32:07;18.20;68.20
33841;DHT22;20142;28.494;-16.312;2022-12-31T05:37:09;18.10;68.30
33841;DHT22;20142;28.494;-16.312;2022-12-31T05:42:12;18.10;67.70
33841;DHT22;20142;28.494;-16.312;2022-12-31T05:47:15;18.20;67.00
33841;DHT22;20142;28.494;-16.312;2022-12-31T05:52:17;18.20;66.60
33841;DHT22;20142;28.494;-16.312;2022-12-31T05:57:18;18.20;65.90
33841;DHT22;20142;28.494;-16.312;2022-12-31T06:02:21;18.20;65.80
33841;DHT22;20142;28.494;-16.312;2022-12-31T06:07:23;18.20;65.70
33841;DHT22;20142;28.494;-16.312;2022-12-31T06:12:25;18.20;65.50
33841;DHT22;20142;28.494;-16.312;2022-12-31T06:17:27;18.20;65.00
33841;DHT22;20142;28.494;-16.312;2022-12-31T06:22:30;18.20;65.00
33841;DHT22;20142;28.494;-16.312;2022-12-31T06:27:31;18.10;65.30
33841;DHT22;20142;28.494;-16.312;2022-12-31T06:32:33;18.20;64.60
33841;DHT22;20142;28.494;-16.312;2022-12-31T06:37:35;18.20;64.90
33841;DHT22;20142;28.494;-16.312;2022-12-31T06:42:36;18.10;65.30
33841;DHT22;20142;28.494;-16.312;2022-12-31T06:47:38;18.20;64.60
33841;DHT22;20142;28.494;-16.312;2022-12-31T06:52:40;18.10;65.00
33841;DHT22;20142;28.494;-16.312;2022-12-31T06:57:42;18.20;64.70
33841;DHT22;20142;28.494;-16.312;2022-12-31T07:03:42;18.20;64.60
33841;DHT22;20142;28.494;-16.312;2022-12-31T07:09:07;18.20;64.90
33841;DHT22;20142;28.494;-16.312;2022-12-31T07:14:30;18.20;64.90
33841;DHT22;20142;28.494;-16.312;2022-12-31T07:19:58;18.10;65.40
33841;DHT22;20142;28.494;-16.312;2022-12-31T07:25:13;18.10;65.70
33841;DHT22;20142;28.494;-16.312;2022-12-31T07:30:21;18.20;65.50
33841;DHT22;20142;28.494;-16.312;2022-12-31T07:47:02;18.10;67.30
33841;DHT22;20142;28.494;-16.312;2022-12-31T07:52:05;18.20;67.30
33841;DHT22;20142;28.494;-16.312;2022-12-31T07:57:08;18.10;67.80
33841;DHT22;20142;28.494;-16.312;2022-12-31T08:02:38;18.10;68.50
33841;DHT22;20142;28.494;-16.312;2022-12-31T08:08:30;18.10;69.10
33841;DHT22;20142;28.494;-16.312;2022-12-31T08:13:53;18.10;69.40
33841;DHT22;20142;28.494;-16.312;2022-12-31T08:18:58;18.10;69.90
33841;DHT22;20142;28.494;-16.312;2022-12-31T08:29:33;18.10;71.30
33841;DHT22;20142;28.494;-16.312;2022-12-31T08:45:45;18.10;73.00
33841;DHT22;20142;28.494;-16.312;2022-12-31T08:50:49;18.20;73.00
33841;DHT22;20142;28.494;-16.312;2022-12-31T08:56:01;18.20;73.30
33841;DHT22;20142;28.494;-16.312;2022-12-31T09:01:07;18.20;73.90
33841;DHT22;20142;28.494;-16.312;2022-12-31T09:06:19;18.30;74.10
33841;DHT22;20142;28.494;-16.312;2022-12-31T09:22:34;18.50;74.90
33841;DHT22;20142;28.494;-16.312;2022-12-31T09:27:42;18.60;75.20
33841;DHT22;20142;28.494;-16.312;2022-12-31T09:33:06;18.70;75.20
33841;DHT22;20142;28.494;-16.312;2022-12-31T09:55:23;19.00;75.90
33841;DHT22;20142;28.494;-16.312;2022-12-31T10:00:51;19.30;76.30
33841;DHT22;20142;28.494;-16.312;2022-12-31T10:06:30;19.30;76.40
33841;DHT22;20142;28.494;-16.312;2022-12-31T11:18:20;20.70;75.60
33841;DHT22;20142;28.494;-16.312;2022-12-31T11:56:31;21.30;75.30
33841;DHT22;20142;28.494;-16.312;2022-12-31T12:07:14;21.40;75.30
33841;DHT22;20142;28.494;-16.312;2022-12-31T12:12:16;21.50;75.10
33841;DHT22;20142;28.494;-16.312;2022-12-31T12:17:36;21.40;75.30
33841;DHT22;20142;28.494;-16.312;2022-12-31T12:22:48;21.50;75.20
33841;DHT22;20142;28.494;-16.312;2022-12-31T12:27:51;21.70;75.60
33841;DHT22;20142;28.494;-16.312;2022-12-31T12:33:00;21.80;75.20
33841;DHT22;20142;28.494;-16.312;2022-12-31T12:38:11;21.90;75.60
33841;DHT22;20142;28.494;-16.312;2022-12-31T12:43:24;22.00;75.20
33841;DHT22;20142;28.494;-16.312;2022-12-31T12:48:38;22.00;75.50
33841;DHT22;20142;28.494;-16.312;2022-12-31T12:54:27;21.90;75.60
33841;DHT22;20142;28.494;-16.312;2022-12-31T13:15:59;22.00;76.10
33841;DHT22;20142;28.494;-16.312;2022-12-31T13:21:16;22.10;75.70
33841;DHT22;20142;28.494;-16.312;2022-12-31T13:26:35;22.00;75.20
33841;DHT22;20142;28.494;-16.312;2022-12-31T13:31:42;21.90;76.20
33841;DHT22;20142;28.494;-16.312;2022-12-31T13:36:45;22.00;75.90
33841;DHT22;20142;28.494;-16.312;2022-12-31T13:47:34;22.10;75.90
33841;DHT22;20142;28.494;-16.312;2022-12-31T13:53:13;22.10;76.00
33841;DHT22;20142;28.494;-16.312;2022-12-31T14:09:01;22.10;75.20
33841;DHT22;20142;28.494;-16.312;2022-12-31T14:25:35;22.60;74.50
33841;DHT22;20142;28.494;-16.312;2022-12-31T14:36:53;23.10;72.80
33841;DHT22;20142;28.494;-16.312;2022-12-31T14:53:22;23.80;70.80
33841;DHT22;20142;28.494;-16.312;2022-12-31T15:03:40;23.80;70.70
33841;DHT22;20142;28.494;-16.312;2022-12-31T15:09:00;23.80;69.40
33841;DHT22;20142;28.494;-16.312;2022-12-31T15:25:02;25.00;72.30
33841;DHT22;20142;28.494;-16.312;2022-12-31T15:30:05;26.70;70.00
33841;DHT22;20142;28.494;-16.312;2022-12-31T15:40:25;27.60;63.00
33841;DHT22;20142;28.494;-16.312;2022-12-31T15:45:36;32.50;57.90
33841;DHT22;20142;28.494;-16.312;2022-12-31T15:50:39;31.00;57.60
33841;DHT22;20142;28.494;-16.312;2022-12-31T15:55:45;32.70;55.80
33841;DHT22;20142;28.494;-16.312;2022-12-31T16:01:13;32.40;53.90
33841;DHT22;20142;28.494;-16.312;2022-12-31T16:06:20;30.70;56.30
33841;DHT22;20142;28.494;-16.312;2022-12-31T16:11:23;29.00;58.90
33841;DHT22;20142;28.494;-16.312;2022-12-31T16:16:28;27.30;59.50
33841;DHT22;20142;28.494;-16.312;2022-12-31T16:26:43;26.70;60.00
33841;DHT22;20142;28.494;-16.312;2022-12-31T16:31:48;26.30;61.70
33841;DHT22;20142;28.494;-16.312;2022-12-31T16:36:59;27.80;59.60
33841;DHT22;20142;28.494;-16.312;2022-12-31T16:42:20;27.50;58.60
33841;DHT22;20142;28.494;-16.312;2022-12-31T16:52:35;27.70;60.00
33841;DHT22;20142;28.494;-16.312;2022-12-31T16:57:38;27.30;60.00
33841;DHT22;20142;28.494;-16.312;2022-12-31T17:02:45;27.00;60.50
33841;DHT22;20142;28.494;-16.312;2022-12-31T17:08:29;25.50;62.50
33841;DHT22;20142;28.494;-16.312;2022-12-31T17:13:42;24.70;63.80
33841;DHT22;20142;28.494;-16.312;2022-12-31T17:18:43;24.10;63.90
33841;DHT22;20142;28.494;-16.312;2022-12-31T17:24:00;23.60;65.00
33841;DHT22;20142;28.494;-16.312;2022-12-31T17:29:03;23.20;65.50
33841;DHT22;20142;28.494;-16.312;2022-12-31T17:34:19;22.80;66.40
33841;DHT22;20142;28.494;-16.312;2022-12-31T17:39:23;22.50;66.80
33841;DHT22;20142;28.494;-16.312;2022-12-31T17:44:26;22.30;67.30
33841;DHT22;20142;28.494;-16.312;2022-12-31T17:49:30;22.00;67.90
33841;DHT22;20142;28.494;-16.312;2022-12-31T17:54:32;21.80;68.40
33841;DHT22;20142;28.494;-16.312;2022-12-31T17:59:34;21.70;68.70
33841;DHT22;20142;28.494;-16.312;2022-12-31T18:04:36;21.30;69.50
33841;DHT22;20142;28.494;-16.312;2022-12-31T18:09:38;21.10;70.30
33841;DHT22;20142;28.494;-16.312;2022-12-31T18:14:41;20.90;70.80
33841;DHT22;20142;28.494;-16.312;2022-12-31T18:19:45;21.00;70.80
33841;DHT22;20142;28.494;-16.312;2022-12-31T18:24:50;20.70;71.60
33841;DHT22;20142;28.494;-16.312;2022-12-31T18:29:54;20.60;72.30
33841;DHT22;20142;28.494;-16.312;2022-12-31T18:34:56;20.40;72.90
33841;DHT22;20142;28.494;-16.312;2022-12-31T18:39:57;20.30;73.40
33841;DHT22;20142;28.494;-16.312;2022-12-31T18:44:59;20.10;73.80
33841;DHT22;20142;28.494;-16.312;2022-12-31T18:50:01;19.90;74.00
33841;DHT22;20142;28.494;-16.312;2022-12-31T18:55:24;19.80;74.50
33841;DHT22;20142;28.494;-16.312;2022-12-31T19:00:27;19.60;75.10
33841;DHT22;20142;28.494;-16.312;2022-12-31T19:05:31;19.50;75.70
33841;DHT22;20142;28.494;-16.312;2022-12-31T19:10:34;19.40;76.30
33841;DHT22;20142;28.494;-16.312;2022-12-31T19:15:44;19.30;76.60
33841;DHT22;20142;28.494;-16.312;2022-12-31T19:20:50;19.10;76.70
33841;DHT22;20142;28.494;-16.312;2022-12-31T19:25:52;19.10;77.00
33841;DHT22;20142;28.494;-16.312;2022-12-31T19:30:53;18.90;77.70
33841;DHT22;20142;28.494;-16.312;2022-12-31T19:35:55;19.10;78.00
33841;DHT22;20142;28.494;-16.312;2022-12-31T19:40:57;19.20;78.40
33841;DHT22;20142;28.494;-16.312;2022-12-31T19:46:02;19.40;78.30
33841;DHT22;20142;28.494;-16.312;2022-12-31T19:51:08;19.40;78.50
33841;DHT22;20142;28.494;-16.312;2022-12-31T19:56:18;19.10;78.80
33841;DHT22;20142;28.494;-16.312;2022-12-31T20:01:22;19.20;79.00
33841;DHT22;20142;28.494;-16.312;2022-12-31T20:06:24;19.30;79.40
33841;DHT22;20142;28.494;-16.312;2022-12-31T20:11:26;19.30;79.60
33841;DHT22;20142;28.494;-16.312;2022-12-31T20:16:28;19.40;79.50
33841;DHT22;20142;28.494;-16.312;2022-12-31T20:21:31;19.40;79.60
33841;DHT22;20142;28.494;-16.312;2022-12-31T20:26:33;19.20;79.90
33841;DHT22;20142;28.494;-16.312;2022-12-31T20:31:35;19.20;80.10
33841;DHT22;20142;28.494;-16.312;2022-12-31T20:36:38;19.20;80.20
33841;DHT22;20142;28.494;-16.312;2022-12-31T20:41:39;19.10;80.60
33841;DHT22;20142;28.494;-16.312;2022-12-31T20:46:41;19.20;80.50
33841;DHT22;20142;28.494;-16.312;2022-12-31T20:51:43;19.20;80.40
33841;DHT22;20142;28.494;-16.312;2022-12-31T20:56:44;19.00;80.80
33841;DHT22;20142;28.494;-16.312;2022-12-31T21:01:46;18.90;80.80
33841;DHT22;20142;28.494;-16.312;2022-12-31T21:06:48;18.80;81.20
33841;DHT22;20142;28.494;-16.312;2022-12-31T21:11:49;18.70;81.30
33841;DHT22;20142;28.494;-16.312;2022-12-31T21:17:10;18.80;81.70
33841;DHT22;20142;28.494;-16.312;2022-12-31T21:22:11;19.00;81.60
33841;DHT22;20142;28.494;-16.312;2022-12-31T21:27:13;18.80;81.60
33841;DHT22;20142;28.494;-16.312;2022-12-31T21:32:15;18.70;81.80
33841;DHT22;20142;28.494;-16.312;2022-12-31T21:37:16;18.60;81.90
33841;DHT22;20142;28.494;-16.312;2022-12-31T21:42:18;18.60;82.30
33841;DHT22;20142;28.494;-16.312;2022-12-31T21:47:20;18.60;82.40
33841;DHT22;20142;28.494;-16.312;2022-12-31T21:52:40;18.70;82.60
33841;DHT22;20142;28.494;-16.312;2022-12-31T21:57:46;18.60;82.70
33841;DHT22;20142;28.494;-16.312;2022-12-31T22:02:48;18.60;83.00
33841;DHT22;20142;28.494;-16.312;2022-12-31T22:08:08;18.60;83.00
33841;DHT22;20142;28.494;-16.312;2022-12-31T22:13:10;18.70;83.20
33841;DHT22;20142;28.494;-16.312;2022-12-31T22:18:13;18.80;82.60
33841;DHT22;20142;28.494;-16.312;2022-12-31T22:23:16;18.50;83.30
33841;DHT22;20142;28.494;-16.312;2022-12-31T22:28:17;18.60;83.40
33841;DHT22;20142;28.494;-16.312;2022-12-31T22:33:19;18.50;83.60
33841;DHT22;20142;28.494;-16.312;2022-12-31T22:38:21;18.60;83.60
33841;DHT22;20142;28.494;-16.312;2022-12-31T22:43:22;18.50;84.00
33841;DHT22;20142;28.494;-16.312;2022-12-31T22:48:24;18.40;83.70
33841;DHT22;20142;28.494;-16.312;2022-12-31T22:53:26;18.40;84.00
33841;DHT22;20142;28.494;-16.312;2022-12-31T22:58:28;18.40;84.30
33841;DHT22;20142;28.494;-16.312;2022-12-31T23:03:29;18.40;83.90
33841;DHT22;20142;28.494;-16.312;2022-12-31T23:08:31;18.30;84.20
33841;DHT22;20142;28.494;-16.312;2022-12-31T23:13:40;18.30;84.40
33841;DHT22;20142;28.494;-16.312;2022-12-31T23:19:01;18.20;84.80
33841;DHT22;20142;28.494;-16.312;2022-12-31T23:24:21;18.20;84.60
33841;DHT22;20142;28.494;-16.312;2022-12-31T23:29:24;18.20;84.90
33841;DHT22;20142;28.494;-16.312;2022-12-31T23:34:25;18.30;85.40
33841;DHT22;20142;28.494;-16.312;2022-12-31T23:39:27;18.40;84.90
33841;DHT22;20142;28.494;-16.312;2022-12-31T23:44:29;18.30;85.20
33841;DHT22;20142;28.494;-16.312;2022-12-31T23:49:31;18.40;84.90
33841;DHT22;20142;28.494;-16.312;2022-12-31T23:54:32;18.20;85.20
33841;DHT22;20142;28.494;-16.312;2022-12-31T23:59:35;18.30;85.30
